Time;durP1;ratioP1;P1;durP2;ratioP2;P2;SDS_P1;SDS_P2;PMS_P1;PMS_P2;Temp;Humidity;BMP_temperature;BMP_pressure;BME280_temperature;BME280_humidity;BME280_pressure;Samples;Min_cycle;Max_cycle;Signal;HPM_P1;HPM_P2
2022/03/26 00:01:36;;;;;;;149.98;60.05;;;5.60;99.90;;;;;;5019035;28;20060;-81
2022/03/26 00:04:02;;;;;;;145.25;61.88;;;5.60;99.90;;;;;;5019231;28;20100;-80
2022/03/26 00:06:27;;;;;;;148.90;59.90;;;5.60;99.90;;;;;;5036359;28;20045;-80
2022/03/26 00:08:53;;;;;;;140.48;59.65;;;5.60;99.90;;;;;;5019003;28;20061;-80
2022/03/26 00:11:19;;;;;;;144.82;58.60;;;5.60;99.90;;;;;;5036575;28;20088;-80
2022/03/26 00:13:45;;;;;;;126.88;54.25;;;5.60;99.90;;;;;;5036544;28;20045;-80
2022/03/26 00:16:11;;;;;;;153.30;59.67;;;5.60;99.90;;;;;;5036475;28;20103;-80
2022/03/26 00:18:38;;;;;;;135.45;55.97;;;5.70;99.90;;;;;;5036228;28;20053;-80
2022/03/26 00:21:04;;;;;;;126.35;53.67;;;5.60;99.90;;;;;;5036338;28;20080;-80
2022/03/26 00:23:29;;;;;;;126.25;55.08;;;5.60;99.90;;;;;;5036134;28;20045;-80
2022/03/26 00:25:58;;;;;;;133.90;54.75;;;5.60;99.90;;;;;;5036242;28;20043;-80
2022/03/26 00:28:24;;;;;;;139.50;56.72;;;5.50;99.90;;;;;;5036085;28;20045;-80
2022/03/26 00:30:50;;;;;;;128.82;53.08;;;5.60;99.90;;;;;;5035964;28;20091;-80
2022/03/26 00:33:17;;;;;;;128.18;52.17;;;5.60;99.90;;;;;;5018655;28;20049;-80
2022/03/26 00:35:42;;;;;;;130.98;52.28;;;5.50;99.90;;;;;;5036153;28;20057;-80
2022/03/26 00:38:09;;;;;;;124.47;51.65;;;5.50;99.90;;;;;;5036009;28;20045;-80
2022/03/26 00:40:34;;;;;;;113.28;49.47;;;5.50;99.90;;;;;;5035997;28;20065;-80
2022/03/26 00:43:00;;;;;;;125.85;53.88;;;5.40;99.90;;;;;;5035993;28;20452;-80
2022/03/26 00:45:29;;;;;;;132.32;54.22;;;5.40;99.90;;;;;;5035866;28;20037;-80
2022/03/26 00:48:01;;;;;;;127.40;55.35;;;5.40;99.90;;;;;;5018084;28;20499;-80
2022/03/26 00:50:27;;;;;;;115.10;51.25;;;5.50;99.90;;;;;;5035955;28;20056;-80
2022/03/26 00:52:53;;;;;;;135.80;56.92;;;5.40;99.90;;;;;;5035801;28;20037;-80
2022/03/26 00:55:19;;;;;;;125.32;52.45;;;5.40;99.90;;;;;;5035541;28;20053;-80
2022/03/26 00:57:45;;;;;;;122.80;50.85;;;5.40;99.90;;;;;;5035663;28;20053;-80
2022/03/26 01:00:12;;;;;;;114.32;51.40;;;5.30;99.90;;;;;;5017882;28;20412;-80
2022/03/26 01:02:38;;;;;;;115.60;48.42;;;5.30;99.90;;;;;;5018584;28;20092;-80
2022/03/26 01:05:04;;;;;;;114.53;48.40;;;5.30;99.90;;;;;;5035581;28;20045;-80
2022/03/26 01:07:31;;;;;;;106.82;47.30;;;5.20;99.90;;;;;;5035546;28;20476;-80
2022/03/26 01:09:57;;;;;;;127.80;54.58;;;5.20;99.90;;;;;;5017844;28;20112;-80
2022/03/26 01:12:24;;;;;;;138.98;57.00;;;5.30;99.90;;;;;;5035366;28;20451;-80
2022/03/26 01:14:50;;;;;;;133.35;54.53;;;5.30;99.90;;;;;;5035333;28;20049;-80
2022/03/26 01:17:16;;;;;;;116.90;48.53;;;5.30;99.90;;;;;;5035268;28;20045;-80
2022/03/26 01:19:43;;;;;;;116.13;49.90;;;5.30;99.90;;;;;;5035116;28;20527;-80
2022/03/26 01:22:08;;;;;;;108.20;48.80;;;5.20;99.90;;;;;;5017873;28;20042;-80
2022/03/26 01:24:34;;;;;;;121.38;50.03;;;5.10;99.90;;;;;;5035146;28;20045;-80
2022/03/26 01:27:00;;;;;;;122.40;51.22;;;5.10;99.90;;;;;;5035165;28;20136;-80
2022/03/26 01:29:26;;;;;;;112.50;49.80;;;5.00;99.90;;;;;;5017534;28;20050;-80
2022/03/26 01:31:52;;;;;;;121.57;51.10;;;5.00;99.90;;;;;;5034802;28;20447;-80
2022/03/26 01:34:18;;;;;;;135.20;55.50;;;4.90;99.90;;;;;;5035354;28;20037;-80
2022/03/26 01:36:44;;;;;;;121.47;51.40;;;5.00;99.90;;;;;;5016533;28;20053;-80
2022/03/26 01:39:10;;;;;;;113.68;47.05;;;5.00;99.90;;;;;;5034813;28;20057;-80
2022/03/26 01:41:36;;;;;;;111.15;50.60;;;5.00;99.90;;;;;;5034873;28;20045;-80
2022/03/26 01:44:02;;;;;;;110.38;47.95;;;4.90;99.90;;;;;;5017263;28;20059;-80
2022/03/26 01:46:43;;;;;;;111.38;50.20;;;4.90;99.90;;;;;;5034746;28;20480;-80
2022/03/26 01:49:08;;;;;;;102.88;44.92;;;4.80;99.90;;;;;;5034584;28;20477;-80
2022/03/26 01:51:34;;;;;;;114.88;50.05;;;4.80;99.90;;;;;;5034672;28;20045;-80
2022/03/26 01:54:01;;;;;;;116.85;53.67;;;4.80;99.90;;;;;;5034333;28;20057;-80
2022/03/26 01:56:27;;;;;;;110.75;49.17;;;4.80;99.90;;;;;;5034557;28;20397;-80
2022/03/26 01:58:53;;;;;;;120.88;51.15;;;4.80;99.90;;;;;;5034524;28;20187;-80
2022/03/26 02:01:19;;;;;;;128.50;50.92;;;4.80;99.90;;;;;;5034317;28;20480;-80
2022/03/26 02:03:45;;;;;;;127.15;54.30;;;4.90;99.90;;;;;;5016648;28;20052;-80
2022/03/26 02:06:10;;;;;;;123.13;52.25;;;4.90;99.90;;;;;;5034402;28;20099;-80
2022/03/26 02:08:36;;;;;;;130.52;54.03;;;4.90;99.90;;;;;;5034410;28;20055;-80
2022/03/26 02:11:03;;;;;;;123.53;52.30;;;4.90;99.90;;;;;;5016559;28;20444;-80
2022/03/26 02:13:57;;;;;;;111.55;48.90;;;4.90;99.90;;;;;;5017274;28;20476;-80
2022/03/26 02:16:24;;;;;;;103.80;46.53;;;4.80;99.90;;;;;;5034252;28;20041;-80
2022/03/26 02:18:51;;;;;;;99.70;45.38;;;4.80;99.90;;;;;;5033989;28;20049;-80
2022/03/26 02:21:18;;;;;;;110.00;46.72;;;4.80;99.90;;;;;;5034109;28;20121;-80
2022/03/26 02:23:44;;;;;;;105.57;46.45;;;4.70;99.90;;;;;;5034074;28;20128;-80
2022/03/26 02:26:12;;;;;;;101.65;45.75;;;4.70;99.90;;;;;;5033849;28;20095;-80
2022/03/26 02:28:38;;;;;;;97.03;44.35;;;4.60;99.90;;;;;;5016234;28;20056;-81
2022/03/26 02:31:04;;;;;;;101.70;45.17;;;4.60;99.90;;;;;;5034170;28;20060;-80
2022/03/26 02:33:29;;;;;;;110.72;47.65;;;4.60;99.90;;;;;;5033960;28;20045;-80
2022/03/26 02:35:55;;;;;;;111.63;47.03;;;4.60;99.90;;;;;;5033927;28;20049;-80
2022/03/26 02:38:23;;;;;;;109.40;47.42;;;4.60;99.90;;;;;;5033753;28;20433;-80
2022/03/26 02:40:48;;;;;;;108.72;49.17;;;4.60;99.90;;;;;;5034351;28;20045;-80
2022/03/26 02:43:14;;;;;;;109.70;46.65;;;4.60;99.90;;;;;;5033796;28;20037;-80
2022/03/26 02:45:46;;;;;;;114.40;49.53;;;4.60;99.90;;;;;;5033713;28;20053;-81
2022/03/26 02:48:12;;;;;;;120.55;49.60;;;4.60;99.90;;;;;;5032967;28;20090;-81
2022/03/26 02:50:39;;;;;;;120.80;50.05;;;4.70;99.90;;;;;;5033714;28;20049;-80
2022/03/26 02:53:05;;;;;;;104.68;45.97;;;4.60;99.90;;;;;;5033771;28;20052;-81
2022/03/26 02:55:31;;;;;;;112.60;46.25;;;4.60;99.90;;;;;;5033390;28;20099;-80
2022/03/26 02:57:57;;;;;;;117.95;50.17;;;4.50;99.90;;;;;;5033650;28;20046;-81
2022/03/26 03:00:23;;;;;;;122.72;49.72;;;4.50;99.90;;;;;;5015969;28;20499;-80
2022/03/26 03:02:48;;;;;;;117.93;50.05;;;4.50;99.90;;;;;;5033709;28;20049;-81
2022/03/26 03:05:14;;;;;;;118.68;52.83;;;4.50;99.90;;;;;;5033560;28;20053;-81
2022/03/26 03:07:40;;;;;;;137.32;55.20;;;4.50;99.90;;;;;;5033723;28;20044;-81
2022/03/26 03:10:07;;;;;;;134.13;53.63;;;4.70;99.90;;;;;;5015515;28;20050;-80
2022/03/26 03:12:33;;;;;;;122.93;50.78;;;4.80;99.90;;;;;;5015814;28;20069;-80
2022/03/26 03:14:59;;;;;;;119.90;52.47;;;4.70;99.90;;;;;;5033622;28;20037;-80
2022/03/26 03:17:25;;;;;;;114.10;51.08;;;4.60;99.90;;;;;;5033434;28;20041;-80
2022/03/26 03:19:50;;;;;;;106.85;47.22;;;4.50;99.90;;;;;;5033430;28;20082;-80
2022/03/26 03:22:16;;;;;;;109.13;47.20;;;4.50;99.90;;;;;;5033499;28;20038;-80
2022/03/26 03:24:42;;;;;;;107.90;47.53;;;4.40;99.90;;;;;;5016349;28;20128;-80
2022/03/26 03:27:08;;;;;;;103.53;48.70;;;4.50;99.90;;;;;;5033485;28;20045;-80
2022/03/26 03:29:34;;;;;;;106.40;46.08;;;4.50;99.90;;;;;;5033388;28;20045;-80
2022/03/26 03:31:59;;;;;;;104.57;46.60;;;4.50;99.90;;;;;;5016011;28;20077;-80
2022/03/26 03:34:25;;;;;;;101.50;46.25;;;4.40;99.90;;;;;;5033355;28;20100;-80
2022/03/26 03:36:51;;;;;;;99.85;42.42;;;4.30;99.90;;;;;;5033066;28;20038;-80
2022/03/26 03:39:16;;;;;;;94.45;42.85;;;4.30;99.90;;;;;;5033246;28;20052;-80
2022/03/26 03:41:42;;;;;;;100.40;45.50;;;4.30;99.90;;;;;;5033318;28;20033;-80
2022/03/26 03:44:10;;;;;;;103.70;44.83;;;4.20;99.90;;;;;;5015841;28;20424;-80
2022/03/26 03:46:36;;;;;;;115.60;49.03;;;4.20;99.90;;;;;;5033419;28;20053;-80
2022/03/26 03:49:05;;;;;;;109.40;47.60;;;4.30;99.90;;;;;;5033174;28;20171;-80
2022/03/26 03:51:30;;;;;;;110.00;47.75;;;4.30;99.90;;;;;;5015606;28;20088;-80
2022/03/26 03:53:56;;;;;;;97.88;44.00;;;4.40;99.90;;;;;;5032755;28;20464;-80
2022/03/26 03:56:22;;;;;;;97.80;43.30;;;4.40;99.90;;;;;;5033115;28;20045;-80
2022/03/26 03:58:48;;;;;;;110.20;47.85;;;4.20;99.90;;;;;;5015875;28;20386;-80
2022/03/26 04:01:14;;;;;;;98.82;45.42;;;4.30;99.90;;;;;;5036801;28;20045;-80
2022/03/26 04:03:39;;;;;;;103.35;44.65;;;4.30;99.90;;;;;;5036698;28;20129;-80
2022/03/26 04:06:05;;;;;;;91.88;43.22;;;4.20;99.90;;;;;;5019095;28;20042;-80
2022/03/26 04:08:31;;;;;;;90.32;40.30;;;4.20;99.90;;;;;;5036693;28;20045;-80
2022/03/26 04:10:57;;;;;;;89.80;42.38;;;4.20;99.90;;;;;;5036651;28;20033;-80
2022/03/26 04:13:23;;;;;;;94.82;42.58;;;4.30;99.90;;;;;;5019076;28;20400;-80
2022/03/26 04:15:49;;;;;;;99.55;44.13;;;4.30;99.90;;;;;;5036600;28;20044;-80
2022/03/26 04:18:15;;;;;;;96.85;42.70;;;4.20;99.90;;;;;;5036281;28;20045;-80
2022/03/26 04:20:40;;;;;;;101.13;42.38;;;4.20;99.90;;;;;;5036352;28;20052;-80
2022/03/26 04:23:06;;;;;;;91.43;42.72;;;4.20;99.90;;;;;;5036490;28;20144;-80
2022/03/26 04:25:32;;;;;;;94.32;42.72;;;4.20;99.90;;;;;;5036414;28;20041;-80
2022/03/26 04:27:58;;;;;;;88.03;41.47;;;4.20;99.90;;;;;;5018549;28;20419;-80
2022/03/26 04:30:24;;;;;;;78.82;38.85;;;4.10;99.90;;;;;;5036304;28;20077;-80
2022/03/26 04:32:49;;;;;;;81.30;37.47;;;4.00;99.90;;;;;;5036200;28;20087;-80
2022/03/26 04:35:15;;;;;;;94.03;40.08;;;4.00;99.90;;;;;;5036508;28;20081;-80
2022/03/26 04:37:41;;;;;;;104.65;44.63;;;4.00;99.90;;;;;;5036039;28;20099;-80
2022/03/26 04:40:11;;;;;;;102.90;43.75;;;4.30;99.90;;;;;;5036119;28;20042;-80
2022/03/26 04:42:39;;;;;;;91.20;41.45;;;4.30;99.90;;;;;;5018932;28;20069;-80
2022/03/26 04:45:07;;;;;;;111.07;46.20;;;4.30;99.90;;;;;;5035951;28;20106;-80
2022/03/26 04:47:33;;;;;;;105.07;46.45;;;4.30;99.90;;;;;;5035899;28;20046;-80
2022/03/26 04:49:59;;;;;;;104.45;44.55;;;4.40;99.90;;;;;;5018049;28;20057;-80
2022/03/26 04:52:24;;;;;;;104.53;44.13;;;4.40;99.90;;;;;;5035946;28;20041;-80
2022/03/26 04:54:50;;;;;;;105.57;41.25;;;4.50;99.90;;;;;;5035590;28;20456;-80
2022/03/26 04:57:18;;;;;;;131.15;50.15;;;4.50;99.90;;;;;;5035631;28;20049;-80
2022/03/26 04:59:44;;;;;;;104.60;46.38;;;4.60;99.90;;;;;;5035652;28;20056;-80
2022/03/26 05:02:10;;;;;;;108.00;44.45;;;4.60;99.90;;;;;;5035403;28;20040;-80
2022/03/26 05:04:35;;;;;;;119.70;48.90;;;4.60;99.90;;;;;;5035465;28;20045;-80
2022/03/26 05:07:45;;;;;;;109.97;47.90;;;4.60;99.90;;;;;;5035742;28;20141;-80
2022/03/26 05:09:47;;;;;;;127.43;48.65;;;4.70;99.90;;;;;;5035208;28;20045;-80
2022/03/26 05:12:12;;;;;;;117.30;48.25;;;4.90;99.90;;;;;;5017025;28;20381;-80
2022/03/26 05:14:38;;;;;;;107.38;45.85;;;5.00;99.90;;;;;;5035163;28;20096;-80
2022/03/26 05:17:04;;;;;;;134.15;53.08;;;5.10;99.90;;;;;;5018076;28;20041;-80
2022/03/26 05:19:29;;;;;;;115.93;48.22;;;5.30;99.90;;;;;;5034463;28;20046;-80
2022/03/26 05:21:55;;;;;;;117.10;45.88;;;5.20;99.90;;;;;;5034180;28;20045;-80
2022/03/26 05:24:20;;;;;;;127.20;49.95;;;5.30;99.90;;;;;;5035129;28;20076;-79
2022/03/26 05:26:46;;;;;;;127.47;50.13;;;5.30;99.90;;;;;;5017771;28;20041;-79
2022/03/26 05:29:12;;;;;;;116.13;48.53;;;5.30;99.90;;;;;;5034852;28;20037;-79
2022/03/26 05:31:37;;;;;;;114.93;45.80;;;5.30;99.90;;;;;;5035036;28;20128;-80
2022/03/26 05:34:03;;;;;;;130.07;49.42;;;5.30;99.90;;;;;;5035262;28;20045;-79
2022/03/26 05:36:28;;;;;;;107.07;46.60;;;5.40;99.90;;;;;;5034853;28;20420;-80
2022/03/26 05:38:54;;;;;;;110.82;45.88;;;5.40;99.90;;;;;;5034685;28;20132;-80
2022/03/26 05:41:20;;;;;;;105.93;44.67;;;5.30;99.90;;;;;;5034646;28;20041;-80
2022/03/26 05:43:45;;;;;;;96.78;43.03;;;5.20;99.90;;;;;;5016854;28;20088;-80
2022/03/26 05:46:11;;;;;;;115.63;46.03;;;5.20;99.90;;;;;;5017070;28;20046;-80
2022/03/26 05:48:37;;;;;;;105.53;44.45;;;5.20;99.90;;;;;;5034701;28;20041;-80
2022/03/26 05:51:02;;;;;;;111.07;45.50;;;5.20;99.90;;;;;;5016963;28;20378;-80
2022/03/26 05:53:28;;;;;;;132.38;47.95;;;5.40;99.90;;;;;;5034292;28;20037;-80
2022/03/26 05:55:54;;;;;;;131.75;51.58;;;5.50;99.90;;;;;;5034543;28;20048;-80
2022/03/26 05:58:19;;;;;;;142.45;54.28;;;5.70;99.90;;;;;;5016440;28;20041;-80
2022/03/26 06:00:49;;;;;;;136.68;49.08;;;5.90;99.90;;;;;;5034212;28;20049;-80
2022/03/26 06:03:17;;;;;;;122.05;50.38;;;6.00;99.90;;;;;;5034473;28;20041;-80
2022/03/26 06:05:42;;;;;;;136.07;52.85;;;6.10;99.90;;;;;;5034186;28;20095;-80
2022/03/26 06:08:08;;;;;;;137.95;50.75;;;6.20;99.90;;;;;;5034348;28;20033;-80
2022/03/26 06:10:35;;;;;;;135.70;53.58;;;6.30;99.90;;;;;;5033978;28;20484;-80
2022/03/26 06:13:01;;;;;;;140.02;50.70;;;6.50;99.90;;;;;;5016350;28;20037;-80
2022/03/26 06:15:26;;;;;;;132.95;50.50;;;6.50;99.90;;;;;;5034245;28;20083;-80
2022/03/26 06:17:52;;;;;;;123.57;50.55;;;6.70;99.90;;;;;;5033769;28;20493;-80
2022/03/26 06:20:18;;;;;;;117.97;47.42;;;6.70;99.90;;;;;;5033857;28;20548;-81
2022/03/26 06:22:44;;;;;;;116.53;45.88;;;6.80;99.90;;;;;;5033851;28;20120;-81
2022/03/26 06:25:09;;;;;;;125.13;51.22;;;7.00;99.90;;;;;;5016467;28;20046;-80
2022/03/26 06:27:35;;;;;;;119.95;49.67;;;7.20;99.90;;;;;;5016177;28;20377;-81
2022/03/26 06:30:02;;;;;;;119.38;50.22;;;7.20;99.90;;;;;;5016143;28;20056;-81
2022/03/26 06:32:27;;;;;;;119.43;49.50;;;7.40;99.90;;;;;;5016317;28;20046;-81
2022/03/26 06:34:53;;;;;;;116.40;48.97;;;7.50;99.90;;;;;;5016306;28;20049;-80
2022/03/26 06:37:20;;;;;;;117.03;48.80;;;7.60;99.90;;;;;;5033845;28;20053;-80
2022/03/26 06:39:46;;;;;;;111.32;47.05;;;7.70;99.90;;;;;;5033501;28;20053;-81
2022/03/26 06:42:12;;;;;;;111.95;48.63;;;7.80;99.90;;;;;;5033635;28;20045;-81
2022/03/26 06:44:38;;;;;;;118.15;49.55;;;7.90;99.90;;;;;;5033815;28;20048;-81
2022/03/26 06:47:05;;;;;;;111.07;47.47;;;8.00;99.90;;;;;;5033804;28;20049;-81
2022/03/26 06:49:32;;;;;;;112.45;47.25;;;8.00;99.90;;;;;;5033860;28;20037;-81
2022/03/26 06:51:59;;;;;;;108.15;47.45;;;8.10;99.90;;;;;;5033699;28;20045;-81
2022/03/26 06:54:25;;;;;;;104.28;47.63;;;8.20;99.90;;;;;;5033356;28;20037;-81
2022/03/26 06:56:50;;;;;;;104.57;46.33;;;8.30;99.90;;;;;;5015984;28;20373;-81
2022/03/26 06:59:16;;;;;;;101.13;46.72;;;8.40;99.90;;;;;;5033561;28;20103;-81
2022/03/26 07:01:44;;;;;;;95.97;45.20;;;8.60;99.90;;;;;;5033598;28;20044;-81
2022/03/26 07:04:09;;;;;;;106.35;48.80;;;8.60;99.90;;;;;;5033465;28;20103;-81
2022/03/26 07:06:35;;;;;;;97.10;45.28;;;8.80;99.90;;;;;;5033609;28;20431;-81
2022/03/26 07:09:01;;;;;;;94.72;47.95;;;8.80;99.90;;;;;;5015728;28;20057;-81
2022/03/26 07:11:26;;;;;;;93.68;43.65;;;9.00;99.90;;;;;;5033580;28;20450;-81
2022/03/26 07:13:52;;;;;;;98.93;45.13;;;9.10;99.90;;;;;;5033435;28;20552;-82
2022/03/26 07:16:18;;;;;;;93.63;46.13;;;9.10;99.90;;;;;;5033441;28;20420;-80
2022/03/26 07:18:44;;;;;;;90.40;43.75;;;9.30;99.90;;;;;;5033400;28;20129;-80
2022/03/26 07:21:09;;;;;;;94.97;43.70;;;9.30;99.90;;;;;;5033402;28;20096;-79
2022/03/26 07:23:35;;;;;;;93.97;45.65;;;9.40;99.90;;;;;;5015740;28;20125;-79
2022/03/26 07:26:01;;;;;;;101.22;46.70;;;9.50;99.90;;;;;;5033269;28;20051;-80
2022/03/26 07:28:27;;;;;;;95.97;46.88;;;9.50;99.90;;;;;;5015945;28;20049;-82
2022/03/26 07:30:52;;;;;;;101.82;48.00;;;9.60;99.90;;;;;;5033403;28;20506;-81
2022/03/26 07:33:18;;;;;;;91.97;44.03;;;9.70;99.90;;;;;;5033069;28;20064;-81
2022/03/26 07:35:44;;;;;;;96.95;46.22;;;9.80;99.90;;;;;;5019287;28;20045;-81
2022/03/26 07:38:11;;;;;;;92.30;43.83;;;9.90;99.90;;;;;;5036793;28;20048;-79
2022/03/26 07:40:36;;;;;;;89.63;43.05;;;10.00;99.90;;;;;;5038022;28;20042;-80
2022/03/26 07:43:02;;;;;;;84.85;42.60;;;10.00;99.90;;;;;;5028716;28;20045;-79
2022/03/26 07:45:28;;;;;;;89.50;42.05;;;10.10;99.90;;;;;;5036781;28;20046;-79
2022/03/26 07:47:54;;;;;;;90.85;43.50;;;10.20;99.90;;;;;;5036865;28;20439;-80
2022/03/26 07:50:19;;;;;;;81.68;40.75;;;10.30;99.90;;;;;;5041332;28;20128;-79
2022/03/26 07:52:45;;;;;;;89.57;42.58;;;10.30;99.90;;;;;;5035556;28;20037;-79
2022/03/26 07:55:11;;;;;;;86.88;41.55;;;10.40;99.90;;;;;;5038330;28;20403;-79
2022/03/26 07:57:37;;;;;;;81.32;41.40;;;10.40;99.90;;;;;;5056151;28;20405;-79
2022/03/26 08:00:05;;;;;;;79.70;39.03;;;10.40;99.90;;;;;;5056229;28;20475;-79
2022/03/26 08:02:30;;;;;;;68.80;37.72;;;10.50;99.90;;;;;;5056232;28;20087;-79
2022/03/26 08:04:56;;;;;;;75.38;39.75;;;10.60;99.90;;;;;;5038438;28;20443;-78
2022/03/26 08:07:21;;;;;;;72.65;37.47;;;10.70;99.90;;;;;;5056288;28;20040;-79
2022/03/26 08:09:48;;;;;;;77.65;39.42;;;10.80;99.90;;;;;;5056075;28;20079;-79
2022/03/26 08:12:14;;;;;;;75.38;40.88;;;10.90;99.90;;;;;;5056059;28;20103;-78
2022/03/26 08:14:39;;;;;;;83.32;41.33;;;11.00;99.90;;;;;;5055999;28;20041;-78
2022/03/26 08:17:05;;;;;;;72.03;39.72;;;11.10;99.90;;;;;;5056188;28;20074;-79
2022/03/26 08:19:34;;;;;;;74.75;39.33;;;11.30;99.90;;;;;;5055951;28;20049;-80
2022/03/26 08:22:00;;;;;;;75.78;39.95;;;11.30;99.90;;;;;;5055752;28;20052;-79
2022/03/26 08:24:26;;;;;;;72.60;40.30;;;11.30;99.90;;;;;;5055936;28;20036;-79
2022/03/26 08:26:53;;;;;;;77.00;40.85;;;11.40;99.90;;;;;;5055903;28;20044;-79
2022/03/26 08:29:19;;;;;;;84.43;42.08;;;11.40;99.90;;;;;;5055809;28;20052;-79
2022/03/26 08:31:44;;;;;;;74.05;38.92;;;11.50;99.90;;;;;;5038290;28;20049;-80
2022/03/26 08:34:10;;;;;;;69.43;38.40;;;11.60;99.90;;;;;;5055715;28;20040;-80
2022/03/26 08:36:37;;;;;;;67.05;38.75;;;11.70;99.90;;;;;;5055555;28;20495;-83
2022/03/26 08:39:03;;;;;;;74.25;40.03;;;11.70;99.90;;;;;;5055550;28;20049;-83
2022/03/26 08:41:29;;;;;;;75.28;41.10;;;11.90;99.90;;;;;;5055767;28;20044;-81
2022/03/26 08:43:54;;;;;;;66.63;36.30;;;11.90;99.90;;;;;;5055663;28;20080;-81
2022/03/26 08:46:21;;;;;;;71.05;39.83;;;12.00;99.90;;;;;;5054425;28;20040;-80
2022/03/26 08:48:48;;;;;;;67.43;37.83;;;12.00;99.90;;;;;;5060409;28;20037;-81
2022/03/26 08:51:14;;;;;;;66.30;37.90;;;12.00;99.90;;;;;;5058959;28;20037;-80
2022/03/26 08:53:40;;;;;;;62.72;36.65;;;12.10;99.90;;;;;;5037243;28;20079;-81
2022/03/26 08:56:06;;;;;;;63.42;36.10;;;12.20;99.90;;;;;;5037430;28;20127;-81
2022/03/26 08:58:33;;;;;;;61.38;35.30;;;12.10;99.90;;;;;;5055012;28;20053;-81
2022/03/26 09:00:59;;;;;;;59.70;34.15;;;12.30;99.90;;;;;;5037265;28;20071;-82
2022/03/26 09:03:24;;;;;;;61.40;35.03;;;12.30;99.90;;;;;;5055049;28;20049;-82
2022/03/26 09:05:52;;;;;;;56.42;33.50;;;12.30;99.90;;;;;;5037411;28;20044;-81
2022/03/26 09:08:18;;;;;;;55.40;32.90;;;12.40;99.90;;;;;;4994858;28;21962;-83
2022/03/26 09:10:44;;;;;;;52.42;30.60;;;12.50;99.90;;;;;;5020263;28;20047;-81
2022/03/26 09:13:10;;;;;;;48.67;28.65;;;12.70;99.90;;;;;;5037817;28;20048;-83
2022/03/26 09:15:36;;;;;;;48.80;27.38;;;12.80;99.90;;;;;;5036745;28;20128;-83
2022/03/26 09:18:02;;;;;;;45.63;26.17;;;12.80;99.90;;;;;;5055864;28;20484;-83
2022/03/26 09:20:29;;;;;;;41.50;24.42;;;12.90;99.90;;;;;;5063688;28;20063;-82
2022/03/26 09:22:54;;;;;;;36.13;20.75;;;13.10;99.90;;;;;;5036840;28;20049;-82
2022/03/26 09:25:21;;;;;;;27.35;15.63;;;13.00;99.90;;;;;;5036323;28;20099;-83
2022/03/26 09:27:50;;;;;;;24.55;14.95;;;13.20;99.90;;;;;;5054613;28;20163;-83
2022/03/26 09:30:16;;;;;;;21.25;13.48;;;13.30;99.90;;;;;;5063452;28;20043;-83
2022/03/26 09:32:45;;;;;;;23.20;12.38;;;13.40;99.90;;;;;;5056392;28;20049;-83
2022/03/26 09:35:13;;;;;;;20.85;12.55;;;13.40;99.90;;;;;;5036896;28;20114;-82
2022/03/26 09:37:40;;;;;;;20.05;12.57;;;13.50;99.90;;;;;;5054707;28;20067;-82
2022/03/26 09:40:07;;;;;;;19.05;11.73;;;13.70;99.90;;;;;;5036661;28;20102;-82
2022/03/26 09:42:33;;;;;;;29.70;16.42;;;13.80;99.90;;;;;;5054512;28;20044;-83
2022/03/26 09:44:59;;;;;;;32.00;18.67;;;13.80;99.90;;;;;;5054768;28;20072;-82
2022/03/26 09:47:25;;;;;;;33.80;19.95;;;13.80;99.90;;;;;;5036393;28;20076;-82
2022/03/26 09:49:51;;;;;;;32.35;18.80;;;13.90;99.90;;;;;;5060477;28;20068;-81
2022/03/26 09:52:16;;;;;;;29.88;17.52;;;13.90;99.90;;;;;;5048078;28;20052;-83
2022/03/26 09:54:42;;;;;;;24.10;14.30;;;14.00;99.90;;;;;;5072420;28;20583;-83
2022/03/26 09:57:09;;;;;;;24.85;14.55;;;14.10;99.90;;;;;;5073605;28;20424;-81
2022/03/26 09:59:35;;;;;;;23.83;14.60;;;14.10;99.90;;;;;;5057804;28;20044;-81
2022/03/26 10:02:02;;;;;;;24.02;15.30;;;14.20;99.90;;;;;;5030396;28;20135;-82
2022/03/26 10:04:40;;;;;;;21.00;14.27;;;14.20;99.90;;;;;;5053087;28;20048;-83
2022/03/26 10:07:07;;;;;;;25.13;14.52;;;14.30;99.90;;;;;;5034500;28;20110;-82
2022/03/26 10:09:45;;;;;;;24.05;14.18;;;14.40;99.90;;;;;;5052387;28;20033;-82
2022/03/26 10:12:18;;;;;;;24.88;14.18;;;14.40;99.90;;;;;;5053285;28;20072;-83
2022/03/26 10:14:44;;;;;;;;;;;14.50;99.90;;;;;;5036050;28;20539;-80
2022/03/26 10:17:12;;;;;;;20.70;11.50;;;14.50;99.90;;;;;;5035136;28;20015;-80
2022/03/26 10:19:42;;;;;;;25.73;14.63;;;14.60;99.90;;;;;;5035769;28;20057;-80
2022/03/26 10:22:26;;;;;;;24.55;15.15;;;14.50;99.90;;;;;;5053838;28;20041;-80
2022/03/26 10:24:53;;;;;;;21.88;13.65;;;14.50;99.90;;;;;;5053700;28;20041;-80
2022/03/26 10:27:19;;;;;;;26.67;13.50;;;14.40;99.90;;;;;;5053799;28;20118;-80
2022/03/26 10:29:50;;;;;;;20.58;13.35;;;14.40;99.90;;;;;;5035745;28;20076;-80
2022/03/26 10:32:39;;;;;;;23.67;13.20;;;14.50;99.90;;;;;;5053732;28;20040;-80
2022/03/26 10:35:26;;;;;;;18.98;12.02;;;14.60;99.90;;;;;;5035712;28;20056;-80
2022/03/26 10:37:58;;;;;;;21.27;12.95;;;14.70;99.90;;;;;;5053641;28;20145;-80
2022/03/26 10:40:32;;;;;;;18.98;12.48;;;14.60;99.90;;;;;;5053617;28;20051;-80
2022/03/26 10:43:10;;;;;;;19.15;11.23;;;14.50;99.90;;;;;;5035559;28;20610;-80
2022/03/26 10:45:47;;;;;;;17.25;10.10;;;14.50;99.90;;;;;;5035695;28;20581;-80
2022/03/26 10:48:13;;;;;;;17.92;9.93;;;14.60;99.90;;;;;;5053521;28;20056;-80
2022/03/26 10:50:39;;;;;;;16.90;9.93;;;14.70;99.90;;;;;;5053170;28;20041;-80
2022/03/26 10:53:08;;;;;;;19.27;10.55;;;14.70;99.90;;;;;;5035442;28;20052;-80
2022/03/26 10:55:36;;;;;;;16.92;10.27;;;14.90;99.90;;;;;;5052937;28;20071;-80
2022/03/26 10:58:04;;;;;;;16.25;9.75;;;14.80;99.90;;;;;;5052974;28;20423;-80
2022/03/26 11:00:30;;;;;;;17.27;8.32;;;14.90;99.90;;;;;;5053006;28;20444;-79
2022/03/26 11:02:55;;;;;;;13.35;7.88;;;15.10;99.90;;;;;;5035000;28;20049;-78
2022/03/26 11:05:22;;;;;;;16.52;9.85;;;15.20;99.90;;;;;;5053363;28;20151;-81
2022/03/26 11:07:50;;;;;;;17.83;10.20;;;15.40;99.90;;;;;;5053005;28;20111;-81
2022/03/26 11:10:15;;;;;;;18.50;12.27;;;15.40;99.90;;;;;;5038485;28;20081;-81
2022/03/26 11:12:46;;;;;;;19.58;12.27;;;15.40;99.90;;;;;;5057163;28;20079;-82
2022/03/26 11:15:30;;;;;;;20.48;12.02;;;15.50;99.90;;;;;;5039549;28;20053;-82
2022/03/26 11:18:27;;;;;;;20.17;11.85;;;15.20;99.90;;;;;;5056956;28;20051;-81
2022/03/26 11:21:20;;;;;;;16.90;11.30;;;15.00;99.90;;;;;;5057024;28;20057;-82
2022/03/26 11:24:00;;;;;;;20.40;12.00;;;15.20;99.90;;;;;;5056738;28;20056;-82
2022/03/26 11:27:01;;;;;;;23.20;12.85;;;15.30;99.90;;;;;;5057357;28;20125;-82
2022/03/26 11:29:50;;;;;;;21.52;13.40;;;15.20;99.90;;;;;;5056867;28;20053;-86
2022/03/26 11:32:26;;;;;;;18.08;12.48;;;15.30;99.90;;;;;;5039168;28;20045;-90
2022/03/26 11:34:59;;;;;;;18.83;12.63;;;15.50;99.90;;;;;;5057068;28;20080;-83
2022/03/26 11:37:25;;;;;;;21.20;12.98;;;15.40;99.90;;;;;;5056582;28;20411;-82
2022/03/26 11:39:52;;;;;;;22.23;12.35;;;15.40;99.90;;;;;;5056642;28;20060;-85
2022/03/26 11:42:36;;;;;;;18.58;12.20;;;15.50;99.90;;;;;;5039002;28;20199;-79
2022/03/26 11:51:16;;;;;;;20.83;12.10;;;15.20;99.90;;;;;;5038820;28;20113;-81
2022/03/26 11:53:44;;;;;;;20.00;13.18;;;15.10;99.90;;;;;;5056394;28;20041;-80
2022/03/26 11:56:27;;;;;;;18.65;11.48;;;14.90;99.90;;;;;;5056401;28;20400;-81
2022/03/26 11:59:06;;;;;;;17.08;11.50;;;14.80;99.90;;;;;;5056210;28;20511;-80
2022/03/26 12:01:48;;;;;;;18.75;11.25;;;14.90;99.90;;;;;;5038511;28;20045;-81
2022/03/26 12:04:15;;;;;;;15.90;10.50;;;14.90;99.90;;;;;;5056172;28;20091;-83
2022/03/26 12:06:47;;;;;;;16.38;10.27;;;14.90;99.90;;;;;;5056338;28;20041;-81
2022/03/26 12:09:30;;;;;;;15.20;9.40;;;15.00;99.90;;;;;;5038363;28;20049;-79
2022/03/26 12:12:05;;;;;;;15.68;10.52;;;15.10;99.90;;;;;;5056383;28;20099;-80
2022/03/26 12:14:31;;;;;;;15.07;9.77;;;15.10;99.90;;;;;;5056005;28;20041;-82
2022/03/26 12:16:57;;;;;;;18.83;10.20;;;15.10;99.90;;;;;;5056163;28;20076;-84
2022/03/26 12:19:35;;;;;;;16.90;9.07;;;15.30;99.90;;;;;;5037704;28;20091;-88
2022/03/26 12:22:21;;;;;;;13.52;9.38;;;15.40;99.90;;;;;;5038087;28;20170;-85
2022/03/26 12:24:48;;;;;;;16.10;10.45;;;15.30;99.90;;;;;;5056353;28;20051;-89
2022/03/26 12:27:15;;;;;;;15.25;10.07;;;15.10;99.90;;;;;;5055842;28;20045;-86
2022/03/26 12:29:41;;;;;;;18.73;10.50;;;15.10;99.90;;;;;;5038182;28;20060;-83
2022/03/26 12:32:07;;;;;;;14.38;9.20;;;15.00;99.90;;;;;;5037893;28;20045;-80
2022/03/26 12:34:33;;;;;;;14.60;9.40;;;14.90;99.90;;;;;;5037796;28;20053;-86
2022/03/26 12:37:03;;;;;;;15.30;10.30;;;14.90;99.90;;;;;;5037992;28;20041;-84